Terminal Aerodrome Forecast
Issued by NWS Jackson, MS

Current Version | Previous Version | Text Only | Print | Product List | Glossary On
Versions: 1 2 3 4 5 6 7 8 9 10 11 12 13
916
FTUS44 KJAN 252340
TAFHBG
TAF
KHBG 252340Z 2600/2624 19008KT P6SM SKC
     FM260700 00000KT 4SM BR SKC
     FM261400 07004KT P6SM SCT035 SCT050=

USA.gov is the U.S. government's official web portal to all federal, state and local government web resources and services.